sensor_id;sensor_type;location;lat;lon;timestamp;pressure;altitude;pressure_sealevel;temperature;humidity
65329;BME280;51941;52.210;5.158;2023-03-31T00:00:04;100245.38;;;10.26;100.00
65329;BME280;51941;52.210;5.158;2023-03-31T00:02:36;100244.66;;;10.30;100.00
65329;BME280;51941;52.210;5.158;2023-03-31T00:05:06;100236.78;;;10.36;100.00
65329;BME280;51941;52.210;5.158;2023-03-31T00:07:33;100229.19;;;10.39;100.00
65329;BME280;51941;52.210;5.158;2023-03-31T00:10:03;100218.34;;;10.41;100.00
65329;BME280;51941;52.210;5.158;2023-03-31T00:12:29;100220.75;;;10.42;100.00
65329;BME280;51941;52.210;5.158;2023-03-31T00:14:58;100212.50;;;10.39;100.00
65329;BME280;51941;52.210;5.158;2023-03-31T00:17:24;100181.13;;;10.25;100.00
65329;BME280;51941;52.210;5.158;2023-03-31T00:19:51;100203.53;;;10.40;100.00
65329;BME280;51941;52.210;5.158;2023-03-31T00:22:18;100200.88;;;10.40;100.00
65329;BME280;51941;52.210;5.158;2023-03-31T00:24:46;100184.44;;;10.38;100.00
65329;BME280;51941;52.210;5.158;2023-03-31T00:27:13;100185.31;;;10.43;100.00
65329;BME280;51941;52.210;5.158;2023-03-31T00:29:40;100174.91;;;10.37;100.00
65329;BME280;51941;52.210;5.158;2023-03-31T00:32:09;100175.78;;;10.42;100.00
65329;BME280;51941;52.210;5.158;2023-03-31T00:34:38;100172.81;;;10.39;100.00
65329;BME280;51941;52.210;5.158;2023-03-31T00:37:05;100168.31;;;10.39;100.00
65329;BME280;51941;52.210;5.158;2023-03-31T00:39:34;100151.41;;;10.40;100.00
65329;BME280;51941;52.210;5.158;2023-03-31T00:42:02;100150.38;;;10.41;100.00
65329;BME280;51941;52.210;5.158;2023-03-31T00:44:30;100131.28;;;10.39;100.00
65329;BME280;51941;52.210;5.158;2023-03-31T00:47:01;100145.06;;;10.41;100.00
65329;BME280;51941;52.210;5.158;2023-03-31T00:49:32;100130.28;;;10.45;100.00
65329;BME280;51941;52.210;5.158;2023-03-31T00:52:02;100118.38;;;10.43;100.00
65329;BME280;51941;52.210;5.158;2023-03-31T00:54:31;100122.13;;;10.47;100.00
65329;BME280;51941;52.210;5.158;2023-03-31T00:56:59;100118.44;;;10.48;100.00
65329;BME280;51941;52.210;5.158;2023-03-31T00:59:29;100108.97;;;10.52;100.00
65329;BME280;51941;52.210;5.158;2023-03-31T01:01:59;100105.75;;;10.50;100.00
65329;BME280;51941;52.210;5.158;2023-03-31T01:04:32;100095.72;;;10.52;100.00
65329;BME280;51941;52.210;5.158;2023-03-31T01:07:06;100094.50;;;10.59;100.00
65329;BME280;51941;52.210;5.158;2023-03-31T01:09:37;100090.78;;;10.60;100.00
65329;BME280;51941;52.210;5.158;2023-03-31T01:12:07;100086.66;;;10.69;100.00
65329;BME280;51941;52.210;5.158;2023-03-31T01:14:35;100083.94;;;10.64;100.00
65329;BME280;51941;52.210;5.158;2023-03-31T01:17:02;100076.59;;;10.72;100.00
65329;BME280;51941;52.210;5.158;2023-03-31T01:19:43;100070.34;;;10.78;100.00
65329;BME280;51941;52.210;5.158;2023-03-31T01:22:44;100065.88;;;10.78;100.00
65329;BME280;51941;52.210;5.158;2023-03-31T01:25:54;100061.28;;;10.74;100.00
65329;BME280;51941;52.210;5.158;2023-03-31T01:28:32;100055.28;;;10.78;100.00
65329;BME280;51941;52.210;5.158;2023-03-31T01:34:51;100045.63;;;10.94;100.00
65329;BME280;51941;52.210;5.158;2023-03-31T01:37:43;100038.75;;;10.98;100.00
65329;BME280;51941;52.210;5.158;2023-03-31T01:40:32;100024.22;;;11.00;100.00
65329;BME280;51941;52.210;5.158;2023-03-31T01:43:04;100020.53;;;11.06;100.00
65329;BME280;51941;52.210;5.158;2023-03-31T01:45:42;100018.19;;;11.10;100.00
65329;BME280;51941;52.210;5.158;2023-03-31T01:48:14;100004.91;;;11.05;100.00
65329;BME280;51941;52.210;5.158;2023-03-31T01:50:46;99983.38;;;10.96;100.00
65329;BME280;51941;52.210;5.158;2023-03-31T01:53:18;99997.56;;;11.12;100.00
65329;BME280;51941;52.210;5.158;2023-03-31T01:55:52;99997.25;;;11.09;100.00
65329;BME280;51941;52.210;5.158;2023-03-31T01:58:24;99981.66;;;11.12;100.00
65329;BME280;51941;52.210;5.158;2023-03-31T02:00:57;99975.03;;;11.10;100.00
65329;BME280;51941;52.210;5.158;2023-03-31T02:03:29;99979.88;;;11.23;100.00
65329;BME280;51941;52.210;5.158;2023-03-31T02:06:01;99967.16;;;11.20;100.00
65329;BME280;51941;52.210;5.158;2023-03-31T02:08:33;99971.91;;;11.23;100.00
65329;BME280;51941;52.210;5.158;2023-03-31T02:11:03;99965.56;;;11.19;100.00
65329;BME280;51941;52.210;5.158;2023-03-31T02:13:31;99954.69;;;11.20;100.00
65329;BME280;51941;52.210;5.158;2023-03-31T02:16:03;99942.78;;;11.23;100.00
65329;BME280;51941;52.210;5.158;2023-03-31T02:18:32;99907.47;;;11.07;100.00
65329;BME280;51941;52.210;5.158;2023-03-31T02:21:04;99933.03;;;11.28;100.00
65329;BME280;51941;52.210;5.158;2023-03-31T02:23:32;99932.78;;;11.35;100.00
65329;BME280;51941;52.210;5.158;2023-03-31T02:26:05;99925.88;;;11.29;100.00
65329;BME280;51941;52.210;5.158;2023-03-31T02:28:33;99915.53;;;11.32;100.00
65329;BME280;51941;52.210;5.158;2023-03-31T02:31:10;99915.84;;;11.36;100.00
65329;BME280;51941;52.210;5.158;2023-03-31T02:33:39;99910.28;;;11.37;100.00
65329;BME280;51941;52.210;5.158;2023-03-31T02:36:06;99904.19;;;11.37;100.00
65329;BME280;51941;52.210;5.158;2023-03-31T02:38:37;99899.16;;;11.40;100.00
65329;BME280;51941;52.210;5.158;2023-03-31T02:41:06;99899.44;;;11.39;100.00
65329;BME280;51941;52.210;5.158;2023-03-31T02:43:33;99892.25;;;11.34;100.00
65329;BME280;51941;52.210;5.158;2023-03-31T02:46:00;99886.41;;;11.32;100.00
65329;BME280;51941;52.210;5.158;2023-03-31T02:48:32;99879.50;;;11.31;100.00
65329;BME280;51941;52.210;5.158;2023-03-31T02:51:17;99878.19;;;11.29;100.00
65329;BME280;51941;52.210;5.158;2023-03-31T02:57:08;99855.91;;;11.25;100.00
65329;BME280;51941;52.210;5.158;2023-03-31T02:59:48;99839.75;;;11.26;100.00
65329;BME280;51941;52.210;5.158;2023-03-31T03:02:23;99836.56;;;11.24;100.00
65329;BME280;51941;52.210;5.158;2023-03-31T03:05:05;99821.22;;;11.21;100.00
65329;BME280;51941;52.210;5.158;2023-03-31T03:07:46;99819.38;;;11.22;100.00
65329;BME280;51941;52.210;5.158;2023-03-31T03:10:17;99815.13;;;11.21;100.00
65329;BME280;51941;52.210;5.158;2023-03-31T03:12:52;99802.13;;;11.24;100.00
65329;BME280;51941;52.210;5.158;2023-03-31T03:15:24;99797.88;;;11.23;100.00
65329;BME280;51941;52.210;5.158;2023-03-31T03:17:54;99786.50;;;11.23;100.00
65329;BME280;51941;52.210;5.158;2023-03-31T03:20:22;99786.50;;;11.18;100.00
65329;BME280;51941;52.210;5.158;2023-03-31T03:22:49;99784.38;;;11.20;100.00
65329;BME280;51941;52.210;5.158;2023-03-31T03:25:16;99778.25;;;11.14;100.00
65329;BME280;51941;52.210;5.158;2023-03-31T03:27:44;99764.72;;;11.00;100.00
65329;BME280;51941;52.210;5.158;2023-03-31T03:30:13;99755.75;;;11.12;100.00
65329;BME280;51941;52.210;5.158;2023-03-31T03:32:40;99742.22;;;11.03;100.00
65329;BME280;51941;52.210;5.158;2023-03-31T03:35:08;99753.63;;;11.09;100.00
65329;BME280;51941;52.210;5.158;2023-03-31T03:37:35;99743.03;;;11.09;100.00
65329;BME280;51941;52.210;5.158;2023-03-31T03:40:03;99741.16;;;11.09;100.00
65329;BME280;51941;52.210;5.158;2023-03-31T03:42:30;99732.13;;;11.05;100.00
65329;BME280;51941;52.210;5.158;2023-03-31T03:44:57;99726.06;;;11.04;100.00
65329;BME280;51941;52.210;5.158;2023-03-31T03:47:25;99717.84;;;11.01;100.00
65329;BME280;51941;52.210;5.158;2023-03-31T03:49:51;99682.84;;;10.84;100.00
65329;BME280;51941;52.210;5.158;2023-03-31T03:52:18;99712.81;;;10.94;100.00
65329;BME280;51941;52.210;5.158;2023-03-31T03:54:45;99717.03;;;10.95;100.00
65329;BME280;51941;52.210;5.158;2023-03-31T03:57:12;99711.19;;;10.93;100.00
65329;BME280;51941;52.210;5.158;2023-03-31T03:59:39;99694.50;;;10.88;100.00
65329;BME280;51941;52.210;5.158;2023-03-31T04:02:05;99677.53;;;10.84;100.00
65329;BME280;51941;52.210;5.158;2023-03-31T04:04:33;99681.53;;;10.91;100.00
65329;BME280;51941;52.210;5.158;2023-03-31T04:07:00;99669.59;;;10.89;100.00
65329;BME280;51941;52.210;5.158;2023-03-31T04:09:27;99673.31;;;10.88;100.00
65329;BME280;51941;52.210;5.158;2023-03-31T04:11:54;99667.22;;;10.77;100.00
65329;BME280;51941;52.210;5.158;2023-03-31T04:14:20;99666.34;;;10.72;100.00
65329;BME280;51941;52.210;5.158;2023-03-31T04:16:47;99637.22;;;10.72;100.00
65329;BME280;51941;52.210;5.158;2023-03-31T04:19:15;99649.97;;;10.69;100.00
65329;BME280;51941;52.210;5.158;2023-03-31T04:21:44;99643.06;;;10.74;100.00
65329;BME280;51941;52.210;5.158;2023-03-31T04:24:15;99628.81;;;10.75;100.00
65329;BME280;51941;52.210;5.158;2023-03-31T04:26:45;99625.66;;;10.78;100.00
65329;BME280;51941;52.210;5.158;2023-03-31T04:29:15;99615.06;;;10.78;100.00
65329;BME280;51941;52.210;5.158;2023-03-31T04:31:42;99579.25;;;10.55;100.00
65329;BME280;51941;52.210;5.158;2023-03-31T04:34:10;99598.88;;;10.69;100.00
65329;BME280;51941;52.210;5.158;2023-03-31T04:36:38;99595.69;;;10.72;100.00
65329;BME280;51941;52.210;5.158;2023-03-31T04:39:08;99579.81;;;10.72;100.00
65329;BME280;51941;52.210;5.158;2023-03-31T04:41:36;99570.00;;;10.73;100.00
65329;BME280;51941;52.210;5.158;2023-03-31T04:44:03;99549.63;;;10.63;100.00
65329;BME280;51941;52.210;5.158;2023-03-31T04:46:30;99556.25;;;10.70;100.00
65329;BME280;51941;52.210;5.158;2023-03-31T04:48:57;99550.69;;;10.67;100.00
65329;BME280;51941;52.210;5.158;2023-03-31T04:51:25;99539.84;;;10.63;100.00
65329;BME280;51941;52.210;5.158;2023-03-31T04:53:52;99520.75;;;10.46;100.00
65329;BME280;51941;52.210;5.158;2023-03-31T04:56:20;99543.28;;;10.59;100.00
65329;BME280;51941;52.210;5.158;2023-03-31T04:58:47;99529.25;;;10.58;100.00
65329;BME280;51941;52.210;5.158;2023-03-31T05:01:14;99521.03;;;10.55;100.00
65329;BME280;51941;52.210;5.158;2023-03-31T05:03:42;99494.28;;;10.36;100.00
65329;BME280;51941;52.210;5.158;2023-03-31T05:06:09;99535.59;;;10.57;100.00
65329;BME280;51941;52.210;5.158;2023-03-31T05:08:36;99520.78;;;10.61;100.00
65329;BME280;51941;52.210;5.158;2023-03-31T05:11:03;99513.13;;;10.65;100.00
65329;BME280;51941;52.210;5.158;2023-03-31T05:13:31;99515.75;;;10.60;100.00
65329;BME280;51941;52.210;5.158;2023-03-31T05:16:05;99498.81;;;10.66;100.00
65329;BME280;51941;52.210;5.158;2023-03-31T05:18:32;99490.09;;;10.60;100.00
65329;BME280;51941;52.210;5.158;2023-03-31T05:21:10;99493.03;;;10.69;100.00
65329;BME280;51941;52.210;5.158;2023-03-31T05:23:37;99496.19;;;10.66;100.00
65329;BME280;51941;52.210;5.158;2023-03-31T05:26:04;99481.63;;;10.68;100.00
65329;BME280;51941;52.210;5.158;2023-03-31T05:28:33;99489.28;;;10.70;100.00
65329;BME280;51941;52.210;5.158;2023-03-31T05:31:01;99471.56;;;10.70;100.00
65329;BME280;51941;52.210;5.158;2023-03-31T05:33:28;99475.53;;;10.63;100.00
65329;BME280;51941;52.210;5.158;2023-03-31T05:35:55;99424.72;;;10.41;100.00
65329;BME280;51941;52.210;5.158;2023-03-31T05:38:24;99472.88;;;10.73;100.00
65329;BME280;51941;52.210;5.158;2023-03-31T05:40:53;99473.69;;;10.74;100.00
65329;BME280;51941;52.210;5.158;2023-03-31T05:43:20;99427.09;;;10.52;100.00
65329;BME280;51941;52.210;5.158;2023-03-31T05:45:48;99463.09;;;10.74;100.00
65329;BME280;51941;52.210;5.158;2023-03-31T05:48:15;99458.13;;;10.77;100.00
65329;BME280;51941;52.210;5.158;2023-03-31T05:50:42;99459.16;;;10.76;100.00
65329;BME280;51941;52.210;5.158;2023-03-31T05:53:09;99450.44;;;10.76;100.00
65329;BME280;51941;52.210;5.158;2023-03-31T05:55:36;99448.53;;;10.71;100.00
65329;BME280;51941;52.210;5.158;2023-03-31T05:58:02;99442.75;;;10.79;100.00
65329;BME280;51941;52.210;5.158;2023-03-31T06:00:29;99441.69;;;10.80;100.00
65329;BME280;51941;52.210;5.158;2023-03-31T06:02:57;99435.88;;;10.83;100.00
65329;BME280;51941;52.210;5.158;2023-03-31T06:05:24;99434.78;;;10.79;100.00
65329;BME280;51941;52.210;5.158;2023-03-31T06:07:51;99400.63;;;10.73;100.00
65329;BME280;51941;52.210;5.158;2023-03-31T06:10:18;99416.00;;;10.91;100.00
65329;BME280;51941;52.210;5.158;2023-03-31T06:12:45;99419.97;;;10.88;100.00
65329;BME280;51941;52.210;5.158;2023-03-31T06:15:12;99374.44;;;10.61;100.00
65329;BME280;51941;52.210;5.158;2023-03-31T06:17:38;99418.13;;;10.89;100.00
65329;BME280;51941;52.210;5.158;2023-03-31T06:20:08;99390.34;;;10.76;100.00
65329;BME280;51941;52.210;5.158;2023-03-31T06:22:34;99400.38;;;10.79;100.00
65329;BME280;51941;52.210;5.158;2023-03-31T06:25:01;99418.91;;;10.94;100.00
65329;BME280;51941;52.210;5.158;2023-03-31T06:27:28;99413.88;;;10.93;100.00
65329;BME280;51941;52.210;5.158;2023-03-31T06:29:54;99414.66;;;10.98;100.00
65329;BME280;51941;52.210;5.158;2023-03-31T06:32:21;99405.44;;;10.86;100.00
65329;BME280;51941;52.210;5.158;2023-03-31T06:34:48;99404.34;;;10.92;100.00
65329;BME280;51941;52.210;5.158;2023-03-31T06:37:16;99384.50;;;10.74;100.00
65329;BME280;51941;52.210;5.158;2023-03-31T06:39:42;99389.00;;;10.89;100.00
65329;BME280;51941;52.210;5.158;2023-03-31T06:42:09;99401.19;;;10.95;100.00
65329;BME280;51941;52.210;5.158;2023-03-31T06:44:39;99397.19;;;10.97;100.00
65329;BME280;51941;52.210;5.158;2023-03-31T06:47:06;99391.63;;;11.04;100.00
65329;BME280;51941;52.210;5.158;2023-03-31T06:49:33;99397.97;;;11.08;100.00
65329;BME280;51941;52.210;5.158;2023-03-31T06:51:59;99403.25;;;11.08;100.00
65329;BME280;51941;52.210;5.158;2023-03-31T06:54:27;99390.56;;;11.10;100.00
65329;BME280;51941;52.210;5.158;2023-03-31T06:56:54;99363.81;;;10.96;100.00
65329;BME280;51941;52.210;5.158;2023-03-31T06:59:20;99383.94;;;11.13;100.00
65329;BME280;51941;52.210;5.158;2023-03-31T07:01:47;99367.78;;;11.09;100.00
65329;BME280;51941;52.210;5.158;2023-03-31T07:04:15;99375.16;;;11.22;100.00
65329;BME280;51941;52.210;5.158;2023-03-31T07:06:41;99389.97;;;11.28;100.00
65329;BME280;51941;52.210;5.158;2023-03-31T07:09:08;99385.94;;;11.41;100.00
65329;BME280;51941;52.210;5.158;2023-03-31T07:11:36;99381.69;;;11.45;100.00
65329;BME280;51941;52.210;5.158;2023-03-31T07:14:03;99383.81;;;11.48;100.00
65329;BME280;51941;52.210;5.158;2023-03-31T07:16:29;99383.25;;;11.51;100.00
65329;BME280;51941;52.210;5.158;2023-03-31T07:18:56;99375.31;;;11.51;100.00
65329;BME280;51941;52.210;5.158;2023-03-31T07:21:24;99381.88;;;11.59;100.00
65329;BME280;51941;52.210;5.158;2023-03-31T07:23:50;99379.50;;;11.62;100.00
65329;BME280;51941;52.210;5.158;2023-03-31T07:26:17;99369.44;;;11.59;100.00
65329;BME280;51941;52.210;5.158;2023-03-31T07:28:45;99367.09;;;11.53;100.00
65329;BME280;51941;52.210;5.158;2023-03-31T07:31:12;99364.41;;;11.58;100.00
65329;BME280;51941;52.210;5.158;2023-03-31T07:33:39;99369.97;;;11.61;100.00
65329;BME280;51941;52.210;5.158;2023-03-31T07:36:07;99369.44;;;11.59;100.00
65329;BME280;51941;52.210;5.158;2023-03-31T07:38:33;99362.00;;;11.61;100.00
65329;BME280;51941;52.210;5.158;2023-03-31T07:41:00;99363.06;;;11.60;100.00
65329;BME280;51941;52.210;5.158;2023-03-31T07:43:27;99356.75;;;11.56;100.00
65329;BME280;51941;52.210;5.158;2023-03-31T07:45:56;99364.13;;;11.64;100.00
65329;BME280;51941;52.210;5.158;2023-03-31T07:48:23;99357.47;;;11.67;100.00
65329;BME280;51941;52.210;5.158;2023-03-31T07:50:53;99368.38;;;11.65;100.00
65329;BME280;51941;52.210;5.158;2023-03-31T07:53:28;99327.38;;;11.42;100.00
65329;BME280;51941;52.210;5.158;2023-03-31T07:55:55;99353.47;;;11.69;100.00
65329;BME280;51941;52.210;5.158;2023-03-31T07:58:22;99331.22;;;11.70;100.00
65329;BME280;51941;52.210;5.158;2023-03-31T08:00:48;99341.72;;;11.86;100.00
65329;BME280;51941;52.210;5.158;2023-03-31T08:03:16;99344.63;;;11.84;100.00
65329;BME280;51941;52.210;5.158;2023-03-31T08:05:43;99340.75;;;11.71;100.00
65329;BME280;51941;52.210;5.158;2023-03-31T08:08:10;99344.72;;;11.74;100.00
65329;BME280;51941;52.210;5.158;2023-03-31T08:10:36;99334.88;;;11.79;100.00
65329;BME280;51941;52.210;5.158;2023-03-31T08:13:03;99335.97;;;11.73;100.00
65329;BME280;51941;52.210;5.158;2023-03-31T08:15:30;99325.59;;;11.82;100.00
65329;BME280;51941;52.210;5.158;2023-03-31T08:17:56;99331.78;;;12.06;100.00
65329;BME280;51941;52.210;5.158;2023-03-31T08:20:24;99336.44;;;12.25;100.00
65329;BME280;51941;52.210;5.158;2023-03-31T08:22:51;99324.63;;;12.41;100.00
65329;BME280;51941;52.210;5.158;2023-03-31T08:25:18;99325.00;;;12.58;100.00
65329;BME280;51941;52.210;5.158;2023-03-31T08:27:45;99296.84;;;12.62;100.00
65329;BME280;51941;52.210;5.158;2023-03-31T08:30:15;99311.63;;;12.68;100.00
65329;BME280;51941;52.210;5.158;2023-03-31T08:32:42;99270.94;;;12.49;100.00
65329;BME280;51941;52.210;5.158;2023-03-31T08:35:09;99311.34;;;12.93;100.00
65329;BME280;51941;52.210;5.158;2023-03-31T08:37:37;99304.84;;;13.05;100.00
65329;BME280;51941;52.210;5.158;2023-03-31T08:40:06;99300.44;;;13.19;100.00
65329;BME280;51941;52.210;5.158;2023-03-31T08:42:38;99302.41;;;13.32;100.00
65329;BME280;51941;52.210;5.158;2023-03-31T08:45:10;99293.28;;;13.38;100.00
65329;BME280;51941;52.210;5.158;2023-03-31T08:47:42;99298.59;;;13.38;100.00
65329;BME280;51941;52.210;5.158;2023-03-31T08:50:11;99301.59;;;13.31;100.00
65329;BME280;51941;52.210;5.158;2023-03-31T08:52:43;99288.84;;;13.34;100.00
65329;BME280;51941;52.210;5.158;2023-03-31T08:55:14;99284.06;;;13.30;100.00
65329;BME280;51941;52.210;5.158;2023-03-31T08:57:51;99281.41;;;13.30;100.00
65329;BME280;51941;52.210;5.158;2023-03-31T09:00:21;99278.03;;;13.25;100.00
65329;BME280;51941;52.210;5.158;2023-03-31T09:02:50;99279.75;;;13.16;100.00
65329;BME280;51941;52.210;5.158;2023-03-31T09:05:45;99271.13;;;13.05;100.00
65329;BME280;51941;52.210;5.158;2023-03-31T09:08:30;99281.78;;;13.00;100.00
65329;BME280;51941;52.210;5.158;2023-03-31T09:11:04;99278.81;;;12.83;100.00
65329;BME280;51941;52.210;5.158;2023-03-31T09:13:44;99277.19;;;12.63;100.00
65329;BME280;51941;52.210;5.158;2023-03-31T09:16:14;99273.50;;;12.59;100.00
65329;BME280;51941;52.210;5.158;2023-03-31T09:18:42;99251.03;;;12.51;100.00
65329;BME280;51941;52.210;5.158;2023-03-31T09:21:17;99262.19;;;12.72;100.00
65329;BME280;51941;52.210;5.158;2023-03-31T09:23:52;99261.75;;;12.89;100.00
65329;BME280;51941;52.210;5.158;2023-03-31T09:26:25;99259.91;;;13.08;100.00
65329;BME280;51941;52.210;5.158;2023-03-31T09:28:56;99258.00;;;13.32;100.00
65329;BME280;51941;52.210;5.158;2023-03-31T09:31:24;99252.22;;;13.49;100.00
65329;BME280;51941;52.210;5.158;2023-03-31T09:33:54;99245.97;;;13.40;100.00
65329;BME280;51941;52.210;5.158;2023-03-31T09:36:23;99238.84;;;13.73;100.00
65329;BME280;51941;52.210;5.158;2023-03-31T09:38:51;99247.19;;;13.99;100.00
65329;BME280;51941;52.210;5.158;2023-03-31T09:41:18;99221.78;;;14.06;100.00
65329;BME280;51941;52.210;5.158;2023-03-31T09:43:46;99241.66;;;14.41;100.00
65329;BME280;51941;52.210;5.158;2023-03-31T09:46:17;99225.50;;;14.52;100.00
65329;BME280;51941;52.210;5.158;2023-03-31T09:48:52;99225.22;;;14.53;100.00
65329;BME280;51941;52.210;5.158;2023-03-31T09:51:25;99223.53;;;14.57;100.00
65329;BME280;51941;52.210;5.158;2023-03-31T09:54:00;99212.53;;;14.64;100.00
65329;BME280;51941;52.210;5.158;2023-03-31T09:56:33;99223.75;;;14.74;100.00
65329;BME280;51941;52.210;5.158;2023-03-31T09:59:01;99220.41;;;14.69;100.00
65329;BME280;51941;52.210;5.158;2023-03-31T10:01:29;99229.28;;;14.64;100.00
65329;BME280;51941;52.210;5.158;2023-03-31T10:03:55;99217.50;;;14.52;100.00
65329;BME280;51941;52.210;5.158;2023-03-31T10:06:23;99226.03;;;14.54;100.00
65329;BME280;51941;52.210;5.158;2023-03-31T10:08:53;99218.13;;;14.62;100.00
65329;BME280;51941;52.210;5.158;2023-03-31T10:11:22;99216.66;;;14.70;100.00
65329;BME280;51941;52.210;5.158;2023-03-31T10:13:53;99216.66;;;14.70;100.00
65329;BME280;51941;52.210;5.158;2023-03-31T10:16:29;99207.09;;;14.69;100.00
65329;BME280;51941;52.210;5.158;2023-03-31T10:19:11;99214.84;;;14.52;100.00
65329;BME280;51941;52.210;5.158;2023-03-31T10:21:38;99207.09;;;14.55;100.00
65329;BME280;51941;52.210;5.158;2023-03-31T10:24:08;99195.84;;;14.58;100.00
65329;BME280;51941;52.210;5.158;2023-03-31T10:26:37;99200.78;;;14.65;100.00
65329;BME280;51941;52.210;5.158;2023-03-31T10:29:09;99194.75;;;14.59;100.00
65329;BME280;51941;52.210;5.158;2023-03-31T10:31:36;99183.91;;;14.69;100.00
65329;BME280;51941;52.210;5.158;2023-03-31T10:34:05;99182.69;;;14.89;100.00
65329;BME280;51941;52.210;5.158;2023-03-31T10:36:33;99178.25;;;14.98;100.00
65329;BME280;51941;52.210;5.158;2023-03-31T10:39:05;99189.56;;;15.04;100.00
65329;BME280;51941;52.210;5.158;2023-03-31T10:41:35;99066.41;;;14.21;100.00
65329;BME280;51941;52.210;5.158;2023-03-31T10:44:05;99030.41;;;13.69;100.00
65329;BME280;51941;52.210;5.158;2023-03-31T10:46:40;99164.31;;;14.65;100.00
65329;BME280;51941;52.210;5.158;2023-03-31T10:49:23;99159.22;;;14.77;100.00
65329;BME280;51941;52.210;5.158;2023-03-31T10:51:52;99135.69;;;14.57;100.00
65329;BME280;51941;52.210;5.158;2023-03-31T10:54:22;99096.25;;;14.32;100.00
65329;BME280;51941;52.210;5.158;2023-03-31T10:56:50;99182.22;;;14.87;100.00
65329;BME280;51941;52.210;5.158;2023-03-31T10:59:34;99067.47;;;14.06;100.00
65329;BME280;51941;52.210;5.158;2023-03-31T11:02:24;99156.97;;;14.57;100.00
65329;BME280;51941;52.210;5.158;2023-03-31T11:05:04;99176.00;;;14.51;100.00
65329;BME280;51941;52.210;5.158;2023-03-31T11:07:51;99181.22;;;14.42;100.00
65329;BME280;51941;52.210;5.158;2023-03-31T11:10:39;99176.03;;;14.64;100.00
65329;BME280;51941;52.210;5.158;2023-03-31T11:13:16;99174.63;;;14.80;100.00
65329;BME280;51941;52.210;5.158;2023-03-31T11:15:51;99169.00;;;14.82;100.00
65329;BME280;51941;52.210;5.158;2023-03-31T11:18:40;99160.72;;;14.70;100.00
65329;BME280;51941;52.210;5.158;2023-03-31T11:21:18;99182.91;;;14.79;100.00
65329;BME280;51941;52.210;5.158;2023-03-31T11:23:51;99183.78;;;14.74;100.00
65329;BME280;51941;52.210;5.158;2023-03-31T11:26:26;99176.13;;;14.73;100.00
65329;BME280;51941;52.210;5.158;2023-03-31T11:29:03;99185.06;;;14.77;100.00
65329;BME280;51941;52.210;5.158;2023-03-31T11:31:41;99178.09;;;14.67;100.00
65329;BME280;51941;52.210;5.158;2023-03-31T11:34:28;99174.25;;;14.60;100.00
65329;BME280;51941;52.210;5.158;2023-03-31T11:37:22;99169.28;;;14.53;100.00
65329;BME280;51941;52.210;5.158;2023-03-31T11:42:50;99168.50;;;14.66;100.00
65329;BME280;51941;52.210;5.158;2023-03-31T11:45:22;99171.78;;;14.63;100.00
65329;BME280;51941;52.210;5.158;2023-03-31T11:47:55;99173.34;;;14.51;100.00
65329;BME280;51941;52.210;5.158;2023-03-31T11:50:27;99157.84;;;14.25;100.00
65329;BME280;51941;52.210;5.158;2023-03-31T11:52:58;99140.91;;;14.07;100.00
65329;BME280;51941;52.210;5.158;2023-03-31T11:55:27;99164.06;;;14.21;100.00
65329;BME280;51941;52.210;5.158;2023-03-31T11:58:00;99156.97;;;14.16;100.00
65329;BME280;51941;52.210;5.158;2023-03-31T12:00:29;99153.00;;;14.14;100.00
65329;BME280;51941;52.210;5.158;2023-03-31T12:03:02;99147.59;;;14.32;100.00
65329;BME280;51941;52.210;5.158;2023-03-31T12:05:32;99148.88;;;14.35;100.00
65329;BME280;51941;52.210;5.158;2023-03-31T12:08:01;99152.63;;;14.34;100.00
65329;BME280;51941;52.210;5.158;2023-03-31T12:10:32;99148.88;;;14.49;100.00
65329;BME280;51941;52.210;5.158;2023-03-31T12:13:05;99145.75;;;14.74;100.00
65329;BME280;51941;52.210;5.158;2023-03-31T12:15:38;99153.31;;;14.80;100.00
65329;BME280;51941;52.210;5.158;2023-03-31T12:18:13;99157.06;;;14.79;100.00
65329;BME280;51941;52.210;5.158;2023-03-31T12:20:45;99144.03;;;14.78;100.00
65329;BME280;51941;52.210;5.158;2023-03-31T12:23:17;99129.75;;;14.74;100.00
65329;BME280;51941;52.210;5.158;2023-03-31T12:25:49;99124.22;;;14.70;100.00
65329;BME280;51941;52.210;5.158;2023-03-31T12:28:18;99132.50;;;14.69;100.00
65329;BME280;51941;52.210;5.158;2023-03-31T12:30:46;99121.16;;;14.77;100.00
65329;BME280;51941;52.210;5.158;2023-03-31T12:33:19;99122.94;;;14.82;100.00
65329;BME280;51941;52.210;5.158;2023-03-31T12:36:01;99123.59;;;14.87;100.00
65329;BME280;51941;52.210;5.158;2023-03-31T12:38:40;99099.56;;;14.78;100.00
65329;BME280;51941;52.210;5.158;2023-03-31T12:41:15;99126.63;;;14.94;100.00
65329;BME280;51941;52.210;5.158;2023-03-31T12:46:54;99108.97;;;14.62;100.00
65329;BME280;51941;52.210;5.158;2023-03-31T12:49:40;99117.31;;;14.69;100.00
65329;BME280;51941;52.210;5.158;2023-03-31T12:52:16;99102.94;;;14.70;100.00
65329;BME280;51941;52.210;5.158;2023-03-31T13:01:04;99102.06;;;14.61;100.00
65329;BME280;51941;52.210;5.158;2023-03-31T13:03:37;99095.75;;;14.57;100.00
65329;BME280;51941;52.210;5.158;2023-03-31T13:06:09;99067.47;;;14.34;100.00
65329;BME280;51941;52.210;5.158;2023-03-31T13:08:50;99066.97;;;14.32;100.00
65329;BME280;51941;52.210;5.158;2023-03-31T13:11:17;99079.09;;;14.38;100.00
65329;BME280;51941;52.210;5.158;2023-03-31T13:13:58;99067.88;;;14.27;100.00
65329;BME280;51941;52.210;5.158;2023-03-31T13:16:26;99071.78;;;14.43;100.00
65329;BME280;51941;52.210;5.158;2023-03-31T13:18:53;99067.75;;;14.46;100.00
65329;BME280;51941;52.210;5.158;2023-03-31T13:21:22;99041.94;;;14.33;100.00
65329;BME280;51941;52.210;5.158;2023-03-31T13:23:50;99063.13;;;14.38;100.00